Main page
METAR-TAF:

METAR-TAF

Airports :

Václav Havel Airport Prague

Prague, Czech Republic

latitude: 50-06N, longitude: 014-15E, elevation: 365 m

Current weather observation

The report was made 35 minutes ago, at 23:30 UTC
Wind 8 kt from the West/Southwest
Temperature 12°C
Humidity 67%
Pressure 1028 hPa
Visibility 10 km or more
no clouds below 1500 m and no cumulonimbus

METAR: LKPR 122330Z 25008KT CAVOK 12/06 Q1028 NOSIG

Time: 02:05 (00:05 UTC)

Forecast

The report was made 1 hour and 5 minutes ago, at 23:00 UTC
Forecast valid from 13 at 00 UTC to 14 at 06 UTC
Wind 8 kt from the West/Southwest
Visibility 10 km or more
no clouds below 1500 m and no cumulonimbus
Temporary
from 13 at 10 UTC to 13 at 14 UTC
Visibility 10 km or more
Scattered clouds at a height of 4000 ft

TAF: LKPR 122300Z 1300/1406 24008KT CAVOK TEMPO 1310/1314 9999 SCT040

Weather observations and forecasts of more than 4000 airports (METAR and TAF reports).

The available stations are represented by yellow and red dots on the map.

Hover mouse over dot to see the name of the station.

Then click to see weather observations and forecasts.

To change the map : click on the green buttons with a black cross to zoom in, on the green button with a dash to zoom out, or on the green arrows for adjacent maps.


METAR-TAF: